sensor_id;sensor_type;location;lat;lon;timestamp;temperature;humidity
75786;DHT22;64402;44.708;37.644;2022-12-18T00:02:06;13.00;76.89
75786;DHT22;64402;44.708;37.644;2022-12-18T00:04:37;12.81;78.24
75786;DHT22;64402;44.708;37.644;2022-12-18T00:07:12;12.71;78.24
75786;DHT22;64402;44.708;37.644;2022-12-18T00:09:43;12.55;79.62
75786;DHT22;64402;44.708;37.644;2022-12-18T00:12:15;12.45;79.91
75786;DHT22;64402;44.708;37.644;2022-12-18T00:14:46;12.34;80.29
75786;DHT22;64402;44.708;37.644;2022-12-18T00:17:18;12.28;80.93
75786;DHT22;64402;44.708;37.644;2022-12-18T00:19:49;12.22;81.00
75786;DHT22;64402;44.708;37.644;2022-12-18T00:22:21;12.17;81.65
75786;DHT22;64402;44.708;37.644;2022-12-18T00:24:53;12.07;82.29
75786;DHT22;64402;44.708;37.644;2022-12-18T00:27:24;12.04;82.65
75786;DHT22;64402;44.708;37.644;2022-12-18T00:29:56;12.04;83.45
75786;DHT22;64402;44.708;37.644;2022-12-18T00:32:28;12.02;83.60
75786;DHT22;64402;44.708;37.644;2022-12-18T00:34:59;11.98;82.94
75786;DHT22;64402;44.708;37.644;2022-12-18T00:37:31;11.90;83.19
75786;DHT22;64402;44.708;37.644;2022-12-18T00:40:03;11.89;83.38
75786;DHT22;64402;44.708;37.644;2022-12-18T00:42:37;11.83;83.41
75786;DHT22;64402;44.708;37.644;2022-12-18T00:45:30;11.81;83.20
75786;DHT22;64402;44.708;37.644;2022-12-18T00:48:02;11.81;83.22
75786;DHT22;64402;44.708;37.644;2022-12-18T00:50:33;11.79;82.91
75786;DHT22;64402;44.708;37.644;2022-12-18T00:53:05;11.78;83.00
75786;DHT22;64402;44.708;37.644;2022-12-18T00:55:40;11.77;83.43
75786;DHT22;64402;44.708;37.644;2022-12-18T00:58:14;11.75;83.71
75786;DHT22;64402;44.708;37.644;2022-12-18T01:00:46;11.73;83.28
75786;DHT22;64402;44.708;37.644;2022-12-18T01:03:17;11.69;84.00
75786;DHT22;64402;44.708;37.644;2022-12-18T01:05:49;11.73;84.03
75786;DHT22;64402;44.708;37.644;2022-12-18T01:08:20;11.79;85.24
75786;DHT22;64402;44.708;37.644;2022-12-18T01:10:52;11.92;83.79
75786;DHT22;64402;44.708;37.644;2022-12-18T01:13:24;11.84;82.97
75786;DHT22;64402;44.708;37.644;2022-12-18T01:15:55;11.82;84.10
75786;DHT22;64402;44.708;37.644;2022-12-18T01:18:27;11.92;84.24
75786;DHT22;64402;44.708;37.644;2022-12-18T01:20:58;12.06;83.32
75786;DHT22;64402;44.708;37.644;2022-12-18T01:23:30;12.16;84.49
75786;DHT22;64402;44.708;37.644;2022-12-18T01:26:06;12.21;84.70
75786;DHT22;64402;44.708;37.644;2022-12-18T01:28:39;12.29;84.98
75786;DHT22;64402;44.708;37.644;2022-12-18T01:31:24;12.29;84.99
75786;DHT22;64402;44.708;37.644;2022-12-18T01:34:00;12.31;85.25
75786;DHT22;64402;44.708;37.644;2022-12-18T01:36:34;12.30;85.25
75786;DHT22;64402;44.708;37.644;2022-12-18T01:39:07;12.47;82.29
75786;DHT22;64402;44.708;37.644;2022-12-18T01:41:39;12.48;83.84
75786;DHT22;64402;44.708;37.644;2022-12-18T01:47:39;12.67;80.04
75786;DHT22;64402;44.708;37.644;2022-12-18T01:50:16;12.57;83.01
75786;DHT22;64402;44.708;37.644;2022-12-18T01:52:51;12.46;82.89
75786;DHT22;64402;44.708;37.644;2022-12-18T01:55:30;12.58;76.98
75786;DHT22;64402;44.708;37.644;2022-12-18T01:58:03;12.64;80.77
75786;DHT22;64402;44.708;37.644;2022-12-18T02:00:35;12.59;79.91
75786;DHT22;64402;44.708;37.644;2022-12-18T02:03:07;12.57;80.58
75786;DHT22;64402;44.708;37.644;2022-12-18T02:08:22;12.67;80.07
75786;DHT22;64402;44.708;37.644;2022-12-18T02:28:16;12.44;79.08
75786;DHT22;64402;44.708;37.644;2022-12-18T02:30:50;12.66;75.95
75786;DHT22;64402;44.708;37.644;2022-12-18T02:33:25;12.80;77.33
75786;DHT22;64402;44.708;37.644;2022-12-18T02:35:57;12.65;79.12
75786;DHT22;64402;44.708;37.644;2022-12-18T02:38:30;12.71;77.26
75786;DHT22;64402;44.708;37.644;2022-12-18T02:41:04;12.69;78.06
75786;DHT22;64402;44.708;37.644;2022-12-18T02:43:36;12.92;74.43
75786;DHT22;64402;44.708;37.644;2022-12-18T02:58:18;13.90;66.42
75786;DHT22;64402;44.708;37.644;2022-12-18T03:04:27;13.82;68.73
75786;DHT22;64402;44.708;37.644;2022-12-18T03:07:10;13.86;69.02
75786;DHT22;64402;44.708;37.644;2022-12-18T03:09:46;13.85;69.18
75786;DHT22;64402;44.708;37.644;2022-12-18T03:12:24;13.89;69.30
75786;DHT22;64402;44.708;37.644;2022-12-18T03:15:08;13.93;68.96
75786;DHT22;64402;44.708;37.644;2022-12-18T03:17:48;13.92;68.98
75786;DHT22;64402;44.708;37.644;2022-12-18T03:20:23;13.94;69.17
75786;DHT22;64402;44.708;37.644;2022-12-18T03:23:16;13.88;69.29
75786;DHT22;64402;44.708;37.644;2022-12-18T03:25:52;13.91;69.74
75786;DHT22;64402;44.708;37.644;2022-12-18T03:28:28;13.84;68.94
75786;DHT22;64402;44.708;37.644;2022-12-18T03:31:02;13.84;69.51
75786;DHT22;64402;44.708;37.644;2022-12-18T03:33:42;13.85;70.09
75786;DHT22;64402;44.708;37.644;2022-12-18T03:36:16;13.81;70.07
75786;DHT22;64402;44.708;37.644;2022-12-18T03:38:48;13.71;70.48
75786;DHT22;64402;44.708;37.644;2022-12-18T03:41:32;13.70;69.78
75786;DHT22;64402;44.708;37.644;2022-12-18T03:44:30;13.71;68.85
75786;DHT22;64402;44.708;37.644;2022-12-18T03:55:47;13.70;70.39
75786;DHT22;64402;44.708;37.644;2022-12-18T03:58:24;13.73;70.29
75786;DHT22;64402;44.708;37.644;2022-12-18T04:01:00;13.76;70.17
75786;DHT22;64402;44.708;37.644;2022-12-18T04:03:34;13.77;70.66
75786;DHT22;64402;44.708;37.644;2022-12-18T04:06:07;13.74;70.90
75786;DHT22;64402;44.708;37.644;2022-12-18T04:08:39;13.77;70.85
75786;DHT22;64402;44.708;37.644;2022-12-18T04:11:12;13.86;69.24
75786;DHT22;64402;44.708;37.644;2022-12-18T04:13:43;13.95;69.79
75786;DHT22;64402;44.708;37.644;2022-12-18T04:16:15;13.93;69.85
75786;DHT22;64402;44.708;37.644;2022-12-18T04:18:47;13.95;70.24
75786;DHT22;64402;44.708;37.644;2022-12-18T04:21:18;13.96;71.12
75786;DHT22;64402;44.708;37.644;2022-12-18T04:23:50;13.97;70.85
75786;DHT22;64402;44.708;37.644;2022-12-18T04:26:22;13.99;70.83
75786;DHT22;64402;44.708;37.644;2022-12-18T04:28:54;14.00;71.52
75786;DHT22;64402;44.708;37.644;2022-12-18T04:31:26;14.00;71.77
75786;DHT22;64402;44.708;37.644;2022-12-18T04:33:57;14.00;71.71
75786;DHT22;64402;44.708;37.644;2022-12-18T04:36:29;13.99;71.94
75786;DHT22;64402;44.708;37.644;2022-12-18T04:39:00;13.99;71.89
75786;DHT22;64402;44.708;37.644;2022-12-18T04:41:32;13.98;72.18
75786;DHT22;64402;44.708;37.644;2022-12-18T04:44:04;13.97;72.63
75786;DHT22;64402;44.708;37.644;2022-12-18T04:46:36;13.97;72.99
75786;DHT22;64402;44.708;37.644;2022-12-18T04:49:07;13.95;73.40
75786;DHT22;64402;44.708;37.644;2022-12-18T04:51:39;13.92;74.02
75786;DHT22;64402;44.708;37.644;2022-12-18T04:54:10;13.86;74.72
75786;DHT22;64402;44.708;37.644;2022-12-18T04:56:42;13.84;75.31
75786;DHT22;64402;44.708;37.644;2022-12-18T04:59:13;13.83;75.79
75786;DHT22;64402;44.708;37.644;2022-12-18T05:01:45;13.84;76.04
75786;DHT22;64402;44.708;37.644;2022-12-18T05:04:17;13.82;76.35
75786;DHT22;64402;44.708;37.644;2022-12-18T05:06:48;13.84;76.68
75786;DHT22;64402;44.708;37.644;2022-12-18T05:09:20;13.83;76.95
75786;DHT22;64402;44.708;37.644;2022-12-18T05:11:51;13.83;77.19
75786;DHT22;64402;44.708;37.644;2022-12-18T05:14:23;13.85;77.47
75786;DHT22;64402;44.708;37.644;2022-12-18T05:16:55;13.88;77.63
75786;DHT22;64402;44.708;37.644;2022-12-18T05:19:26;13.88;77.72
75786;DHT22;64402;44.708;37.644;2022-12-18T05:21:58;13.85;77.81
75786;DHT22;64402;44.708;37.644;2022-12-18T05:24:29;13.83;78.21
75786;DHT22;64402;44.708;37.644;2022-12-18T05:27:01;13.83;78.54
75786;DHT22;64402;44.708;37.644;2022-12-18T05:29:33;13.86;78.98
75786;DHT22;64402;44.708;37.644;2022-12-18T05:32:04;13.84;79.25
75786;DHT22;64402;44.708;37.644;2022-12-18T05:34:36;13.83;79.66
75786;DHT22;64402;44.708;37.644;2022-12-18T05:37:07;13.84;79.93
75786;DHT22;64402;44.708;37.644;2022-12-18T05:39:39;13.82;80.14
75786;DHT22;64402;44.708;37.644;2022-12-18T05:42:10;13.82;80.56
75786;DHT22;64402;44.708;37.644;2022-12-18T05:44:43;13.86;80.75
75786;DHT22;64402;44.708;37.644;2022-12-18T05:47:14;13.88;81.07
75786;DHT22;64402;44.708;37.644;2022-12-18T05:49:46;13.91;81.20
75786;DHT22;64402;44.708;37.644;2022-12-18T05:52:17;13.95;81.38
75786;DHT22;64402;44.708;37.644;2022-12-18T05:54:49;13.97;81.41
75786;DHT22;64402;44.708;37.644;2022-12-18T05:57:20;14.00;81.53
75786;DHT22;64402;44.708;37.644;2022-12-18T05:59:52;14.10;81.52
75786;DHT22;64402;44.708;37.644;2022-12-18T06:02:24;14.15;81.59
75786;DHT22;64402;44.708;37.644;2022-12-18T06:04:55;14.26;81.24
75786;DHT22;64402;44.708;37.644;2022-12-18T06:07:27;14.36;80.97
75786;DHT22;64402;44.708;37.644;2022-12-18T06:09:58;14.39;81.00
75786;DHT22;64402;44.708;37.644;2022-12-18T06:12:30;14.41;81.20
75786;DHT22;64402;44.708;37.644;2022-12-18T06:15:01;14.45;81.15
75786;DHT22;64402;44.708;37.644;2022-12-18T06:17:33;14.48;81.20
75786;DHT22;64402;44.708;37.644;2022-12-18T06:20:05;14.55;81.03
75786;DHT22;64402;44.708;37.644;2022-12-18T06:22:38;14.59;80.94
75786;DHT22;64402;44.708;37.644;2022-12-18T06:25:09;14.66;80.96
75786;DHT22;64402;44.708;37.644;2022-12-18T06:27:41;14.72;80.71
75786;DHT22;64402;44.708;37.644;2022-12-18T06:30:14;14.75;80.70
75786;DHT22;64402;44.708;37.644;2022-12-18T06:32:48;14.78;80.40
75786;DHT22;64402;44.708;37.644;2022-12-18T06:35:19;14.85;80.39
75786;DHT22;64402;44.708;37.644;2022-12-18T06:37:51;14.84;80.56
75786;DHT22;64402;44.708;37.644;2022-12-18T06:40:23;14.93;80.33
75786;DHT22;64402;44.708;37.644;2022-12-18T06:42:54;14.97;80.15
75786;DHT22;64402;44.708;37.644;2022-12-18T06:45:26;15.03;79.88
75786;DHT22;64402;44.708;37.644;2022-12-18T06:47:57;15.17;79.55
75786;DHT22;64402;44.708;37.644;2022-12-18T06:50:29;15.23;79.32
75786;DHT22;64402;44.708;37.644;2022-12-18T06:53:01;15.47;78.66
75786;DHT22;64402;44.708;37.644;2022-12-18T06:55:33;15.65;78.01
75786;DHT22;64402;44.708;37.644;2022-12-18T06:58:04;15.80;77.33
75786;DHT22;64402;44.708;37.644;2022-12-18T07:00:36;15.86;77.07
75786;DHT22;64402;44.708;37.644;2022-12-18T07:03:08;15.93;76.94
75786;DHT22;64402;44.708;37.644;2022-12-18T07:05:40;15.77;77.30
75786;DHT22;64402;44.708;37.644;2022-12-18T07:08:12;15.75;77.50
75786;DHT22;64402;44.708;37.644;2022-12-18T07:10:43;15.90;77.22
75786;DHT22;64402;44.708;37.644;2022-12-18T07:13:16;16.25;75.81
75786;DHT22;64402;44.708;37.644;2022-12-18T07:15:48;16.12;76.05
75786;DHT22;64402;44.708;37.644;2022-12-18T07:18:19;15.92;77.34
75786;DHT22;64402;44.708;37.644;2022-12-18T07:20:51;15.86;77.72
75786;DHT22;64402;44.708;37.644;2022-12-18T07:23:22;15.83;77.76
75786;DHT22;64402;44.708;37.644;2022-12-18T07:25:54;15.81;78.12
75786;DHT22;64402;44.708;37.644;2022-12-18T07:28:25;15.75;78.41
75786;DHT22;64402;44.708;37.644;2022-12-18T07:30:57;15.71;78.71
75786;DHT22;64402;44.708;37.644;2022-12-18T07:33:30;15.65;79.29
75786;DHT22;64402;44.708;37.644;2022-12-18T07:36:05;15.58;79.62
75786;DHT22;64402;44.708;37.644;2022-12-18T07:38:37;15.56;79.85
75786;DHT22;64402;44.708;37.644;2022-12-18T07:41:11;15.49;80.15
75786;DHT22;64402;44.708;37.644;2022-12-18T07:43:43;15.48;80.14
75786;DHT22;64402;44.708;37.644;2022-12-18T07:46:15;15.49;78.46
75786;DHT22;64402;44.708;37.644;2022-12-18T07:48:47;15.62;78.04
75786;DHT22;64402;44.708;37.644;2022-12-18T07:51:22;15.78;77.56
75786;DHT22;64402;44.708;37.644;2022-12-18T07:53:54;15.83;77.92
75786;DHT22;64402;44.708;37.644;2022-12-18T07:56:25;15.80;78.79
75786;DHT22;64402;44.708;37.644;2022-12-18T07:58:58;15.81;78.88
75786;DHT22;64402;44.708;37.644;2022-12-18T08:01:29;15.75;78.90
75786;DHT22;64402;44.708;37.644;2022-12-18T08:04:01;15.58;79.53
75786;DHT22;64402;44.708;37.644;2022-12-18T08:06:33;15.46;80.24
75786;DHT22;64402;44.708;37.644;2022-12-18T08:09:04;15.33;81.14
75786;DHT22;64402;44.708;37.644;2022-12-18T08:11:36;15.23;81.59
75786;DHT22;64402;44.708;37.644;2022-12-18T08:14:08;15.27;81.49
75786;DHT22;64402;44.708;37.644;2022-12-18T08:16:40;15.28;81.44
75786;DHT22;64402;44.708;37.644;2022-12-18T08:19:12;15.34;81.24
75786;DHT22;64402;44.708;37.644;2022-12-18T08:21:43;15.45;80.43
75786;DHT22;64402;44.708;37.644;2022-12-18T08:24:15;15.59;79.96
75786;DHT22;64402;44.708;37.644;2022-12-18T08:26:47;15.75;79.43
75786;DHT22;64402;44.708;37.644;2022-12-18T08:29:18;15.91;79.28
75786;DHT22;64402;44.708;37.644;2022-12-18T08:31:50;15.99;78.77
75786;DHT22;64402;44.708;37.644;2022-12-18T08:34:21;15.95;78.61
75786;DHT22;64402;44.708;37.644;2022-12-18T08:36:53;16.11;78.45
75786;DHT22;64402;44.708;37.644;2022-12-18T08:39:24;16.34;77.70
75786;DHT22;64402;44.708;37.644;2022-12-18T08:41:56;16.54;77.42
75786;DHT22;64402;44.708;37.644;2022-12-18T08:44:46;16.51;77.35
75786;DHT22;64402;44.708;37.644;2022-12-18T08:47:18;16.25;78.18
75786;DHT22;64402;44.708;37.644;2022-12-18T08:49:49;15.98;78.70
75786;DHT22;64402;44.708;37.644;2022-12-18T08:52:21;15.85;79.95
75786;DHT22;64402;44.708;37.644;2022-12-18T08:54:52;15.74;80.27
75786;DHT22;64402;44.708;37.644;2022-12-18T08:57:24;15.70;80.37
75786;DHT22;64402;44.708;37.644;2022-12-18T08:59:55;15.83;80.11
75786;DHT22;64402;44.708;37.644;2022-12-18T09:02:27;15.88;79.81
75786;DHT22;64402;44.708;37.644;2022-12-18T09:04:58;15.77;80.33
75786;DHT22;64402;44.708;37.644;2022-12-18T09:07:30;15.90;79.87
75786;DHT22;64402;44.708;37.644;2022-12-18T09:10:01;16.08;79.37
75786;DHT22;64402;44.708;37.644;2022-12-18T09:12:33;16.06;79.26
75786;DHT22;64402;44.708;37.644;2022-12-18T09:15:05;16.13;79.16
75786;DHT22;64402;44.708;37.644;2022-12-18T09:17:36;16.42;78.24
75786;DHT22;64402;44.708;37.644;2022-12-18T09:20:08;17.46;74.25
75786;DHT22;64402;44.708;37.644;2022-12-18T09:22:40;18.37;71.05
75786;DHT22;64402;44.708;37.644;2022-12-18T09:25:11;19.20;68.79
75786;DHT22;64402;44.708;37.644;2022-12-18T09:27:43;19.26;67.15
75786;DHT22;64402;44.708;37.644;2022-12-18T09:30:17;19.12;68.26
75786;DHT22;64402;44.708;37.644;2022-12-18T09:32:49;18.85;68.20
75786;DHT22;64402;44.708;37.644;2022-12-18T09:35:21;18.58;69.56
75786;DHT22;64402;44.708;37.644;2022-12-18T09:37:53;18.89;69.00
75786;DHT22;64402;44.708;37.644;2022-12-18T09:40:26;19.41;67.21
75786;DHT22;64402;44.708;37.644;2022-12-18T09:43:03;19.72;65.35
75786;DHT22;64402;44.708;37.644;2022-12-18T09:45:47;19.63;65.60
75786;DHT22;64402;44.708;37.644;2022-12-18T09:48:28;19.11;66.56
75786;DHT22;64402;44.708;37.644;2022-12-18T09:51:28;18.59;68.19
75786;DHT22;64402;44.708;37.644;2022-12-18T09:54:04;18.26;70.00
75786;DHT22;64402;44.708;37.644;2022-12-18T09:56:40;17.83;72.30
75786;DHT22;64402;44.708;37.644;2022-12-18T09:59:35;17.32;74.07
75786;DHT22;64402;44.708;37.644;2022-12-18T10:02:16;16.98;75.60
75786;DHT22;64402;44.708;37.644;2022-12-18T10:05:18;16.64;76.89
75786;DHT22;64402;44.708;37.644;2022-12-18T10:10:51;16.16;79.18
75786;DHT22;64402;44.708;37.644;2022-12-18T10:13:41;16.06;79.09
75786;DHT22;64402;44.708;37.644;2022-12-18T10:25:21;15.71;81.00
75786;DHT22;64402;44.708;37.644;2022-12-18T10:27:56;15.57;81.63
75786;DHT22;64402;44.708;37.644;2022-12-18T10:30:28;15.39;82.25
75786;DHT22;64402;44.708;37.644;2022-12-18T10:33:02;15.33;82.36
75786;DHT22;64402;44.708;37.644;2022-12-18T10:35:35;15.31;82.59
75786;DHT22;64402;44.708;37.644;2022-12-18T10:38:28;15.37;82.49
75786;DHT22;64402;44.708;37.644;2022-12-18T10:41:27;15.30;82.99
75786;DHT22;64402;44.708;37.644;2022-12-18T10:44:19;15.18;83.69
75786;DHT22;64402;44.708;37.644;2022-12-18T10:46:54;15.02;84.52
75786;DHT22;64402;44.708;37.644;2022-12-18T10:49:31;14.95;84.61
75786;DHT22;64402;44.708;37.644;2022-12-18T10:52:25;15.02;84.28
75786;DHT22;64402;44.708;37.644;2022-12-18T10:55:05;15.11;83.92
75786;DHT22;64402;44.708;37.644;2022-12-18T10:57:38;15.12;83.64
75786;DHT22;64402;44.708;37.644;2022-12-18T11:02:55;15.15;83.60
75786;DHT22;64402;44.708;37.644;2022-12-18T11:05:30;15.11;83.49
75786;DHT22;64402;44.708;37.644;2022-12-18T11:08:03;15.11;83.65
75786;DHT22;64402;44.708;37.644;2022-12-18T11:10:36;15.13;83.39
75786;DHT22;64402;44.708;37.644;2022-12-18T11:13:29;15.22;83.23
75786;DHT22;64402;44.708;37.644;2022-12-18T11:16:01;15.32;82.52
75786;DHT22;64402;44.708;37.644;2022-12-18T11:18:34;15.43;81.90
75786;DHT22;64402;44.708;37.644;2022-12-18T11:21:09;15.45;82.07
75786;DHT22;64402;44.708;37.644;2022-12-18T11:23:50;15.49;82.20
75786;DHT22;64402;44.708;37.644;2022-12-18T11:26:34;15.46;82.33
75786;DHT22;64402;44.708;37.644;2022-12-18T11:29:16;15.34;82.97
75786;DHT22;64402;44.708;37.644;2022-12-18T11:31:48;15.08;84.00
75786;DHT22;64402;44.708;37.644;2022-12-18T11:34:26;14.69;82.75
75786;DHT22;64402;44.708;37.644;2022-12-18T11:37:00;14.30;82.94
75786;DHT22;64402;44.708;37.644;2022-12-18T11:39:44;14.26;84.16
75786;DHT22;64402;44.708;37.644;2022-12-18T11:42:21;14.30;83.05
75786;DHT22;64402;44.708;37.644;2022-12-18T11:45:04;14.34;82.65
75786;DHT22;64402;44.708;37.644;2022-12-18T11:48:00;14.11;81.88
75786;DHT22;64402;44.708;37.644;2022-12-18T11:50:49;13.95;82.93
75786;DHT22;64402;44.708;37.644;2022-12-18T11:53:22;13.88;83.26
75786;DHT22;64402;44.708;37.644;2022-12-18T11:56:27;13.92;82.57
75786;DHT22;64402;44.708;37.644;2022-12-18T11:59:08;13.97;82.37
75786;DHT22;64402;44.708;37.644;2022-12-18T12:01:50;13.92;82.32
75786;DHT22;64402;44.708;37.644;2022-12-18T12:04:48;13.75;81.21
75786;DHT22;64402;44.708;37.644;2022-12-18T12:12:57;13.21;81.87
75786;DHT22;64402;44.708;37.644;2022-12-18T12:15:55;13.01;82.29
75786;DHT22;64402;44.708;37.644;2022-12-18T12:21:42;13.16;81.90
75786;DHT22;64402;44.708;37.644;2022-12-18T12:33:03;12.90;80.78
75786;DHT22;64402;44.708;37.644;2022-12-18T12:35:57;12.73;81.90
75786;DHT22;64402;44.708;37.644;2022-12-18T12:38:43;12.55;82.23
75786;DHT22;64402;44.708;37.644;2022-12-18T12:41:26;12.41;82.90
75786;DHT22;64402;44.708;37.644;2022-12-18T12:44:22;12.21;83.44
75786;DHT22;64402;44.708;37.644;2022-12-18T12:46:59;12.08;83.66
75786;DHT22;64402;44.708;37.644;2022-12-18T12:49:33;11.87;84.42
75786;DHT22;64402;44.708;37.644;2022-12-18T12:52:11;11.76;84.86
75786;DHT22;64402;44.708;37.644;2022-12-18T12:54:44;11.67;85.26
75786;DHT22;64402;44.708;37.644;2022-12-18T12:57:24;11.79;84.62
75786;DHT22;64402;44.708;37.644;2022-12-18T13:00:09;11.94;84.06
75786;DHT22;64402;44.708;37.644;2022-12-18T13:05:56;11.58;84.81
75786;DHT22;64402;44.708;37.644;2022-12-18T13:08:32;11.43;85.61
75786;DHT22;64402;44.708;37.644;2022-12-18T13:11:32;11.32;85.69
75786;DHT22;64402;44.708;37.644;2022-12-18T13:14:35;11.29;85.65
75786;DHT22;64402;44.708;37.644;2022-12-18T13:20:09;11.22;84.70
75786;DHT22;64402;44.708;37.644;2022-12-18T13:22:47;11.11;85.32
75786;DHT22;64402;44.708;37.644;2022-12-18T13:25:36;10.98;85.42
75786;DHT22;64402;44.708;37.644;2022-12-18T13:30:49;10.72;86.11
75786;DHT22;64402;44.708;37.644;2022-12-18T13:33:35;10.52;86.67
75786;DHT22;64402;44.708;37.644;2022-12-18T13:36:28;10.67;85.64
75786;DHT22;64402;44.708;37.644;2022-12-18T13:41:41;10.69;85.08
75786;DHT22;64402;44.708;37.644;2022-12-18T13:44:32;10.60;84.65
75786;DHT22;64402;44.708;37.644;2022-12-18T13:47:05;10.65;85.09
75786;DHT22;64402;44.708;37.644;2022-12-18T13:49:56;10.80;84.47
75786;DHT22;64402;44.708;37.644;2022-12-18T13:52:34;10.63;84.39
75786;DHT22;64402;44.708;37.644;2022-12-18T13:55:15;10.36;85.52
75786;DHT22;64402;44.708;37.644;2022-12-18T13:57:47;10.20;86.35
75786;DHT22;64402;44.708;37.644;2022-12-18T14:02:54;10.14;86.16
75786;DHT22;64402;44.708;37.644;2022-12-18T14:05:32;10.09;86.74
75786;DHT22;64402;44.708;37.644;2022-12-18T14:08:15;10.24;85.71
75786;DHT22;64402;44.708;37.644;2022-12-18T14:10:48;10.24;84.67
75786;DHT22;64402;44.708;37.644;2022-12-18T14:13:33;10.10;85.90
75786;DHT22;64402;44.708;37.644;2022-12-18T14:16:06;10.15;85.20
75786;DHT22;64402;44.708;37.644;2022-12-18T14:18:43;10.18;84.64
75786;DHT22;64402;44.708;37.644;2022-12-18T14:21:27;10.30;84.74
75786;DHT22;64402;44.708;37.644;2022-12-18T14:24:20;10.52;83.39
75786;DHT22;64402;44.708;37.644;2022-12-18T14:26:52;10.54;82.33
75786;DHT22;64402;44.708;37.644;2022-12-18T14:29:28;10.49;82.12
75786;DHT22;64402;44.708;37.644;2022-12-18T14:32:18;10.40;80.65
75786;DHT22;64402;44.708;37.644;2022-12-18T14:34:52;10.18;83.13
75786;DHT22;64402;44.708;37.644;2022-12-18T14:37:27;10.26;82.81
75786;DHT22;64402;44.708;37.644;2022-12-18T14:40:01;10.20;82.12
75786;DHT22;64402;44.708;37.644;2022-12-18T14:42:33;10.29;81.71
75786;DHT22;64402;44.708;37.644;2022-12-18T14:45:40;10.48;81.70
75786;DHT22;64402;44.708;37.644;2022-12-18T14:48:40;10.63;80.72
75786;DHT22;64402;44.708;37.644;2022-12-18T14:53:46;10.55;78.70
75786;DHT22;64402;44.708;37.644;2022-12-18T14:56:25;10.18;80.37
75786;DHT22;64402;44.708;37.644;2022-12-18T14:58:58;10.23;81.51
75786;DHT22;64402;44.708;37.644;2022-12-18T15:01:36;10.14;80.23
75786;DHT22;64402;44.708;37.644;2022-12-18T15:07:08;9.90;81.36
75786;DHT22;64402;44.708;37.644;2022-12-18T15:13:07;9.69;80.51
75786;DHT22;64402;44.708;37.644;2022-12-18T15:18:16;9.37;81.81
75786;DHT22;64402;44.708;37.644;2022-12-18T15:20:51;9.41;80.92
75786;DHT22;64402;44.708;37.644;2022-12-18T15:26:03;9.59;80.52
75786;DHT22;64402;44.708;37.644;2022-12-18T15:28:51;9.57;79.98
75786;DHT22;64402;44.708;37.644;2022-12-18T15:31:29;9.63;80.37
75786;DHT22;64402;44.708;37.644;2022-12-18T15:34:10;9.65;80.23
75786;DHT22;64402;44.708;37.644;2022-12-18T15:36:43;9.76;79.84
75786;DHT22;64402;44.708;37.644;2022-12-18T15:39:15;9.74;78.93
75786;DHT22;64402;44.708;37.644;2022-12-18T15:41:47;9.78;79.04
75786;DHT22;64402;44.708;37.644;2022-12-18T15:44:37;9.84;78.79
75786;DHT22;64402;44.708;37.644;2022-12-18T15:47:11;9.83;78.84
75786;DHT22;64402;44.708;37.644;2022-12-18T15:49:44;9.88;78.50
75786;DHT22;64402;44.708;37.644;2022-12-18T15:52:15;9.77;78.08
75786;DHT22;64402;44.708;37.644;2022-12-18T15:54:56;9.62;79.17
75786;DHT22;64402;44.708;37.644;2022-12-18T15:57:46;9.71;78.71
75786;DHT22;64402;44.708;37.644;2022-12-18T16:00:18;9.66;79.24
75786;DHT22;64402;44.708;37.644;2022-12-18T16:02:50;9.60;78.93
75786;DHT22;64402;44.708;37.644;2022-12-18T16:05:22;9.61;78.61
75786;DHT22;64402;44.708;37.644;2022-12-18T16:07:54;9.62;77.60
75786;DHT22;64402;44.708;37.644;2022-12-18T16:10:26;9.59;77.75
75786;DHT22;64402;44.708;37.644;2022-12-18T16:12:58;9.46;78.61
75786;DHT22;64402;44.708;37.644;2022-12-18T16:15:29;9.30;78.45
75786;DHT22;64402;44.708;37.644;2022-12-18T16:18:01;9.15;78.84
75786;DHT22;64402;44.708;37.644;2022-12-18T16:20:33;9.03;78.61
75786;DHT22;64402;44.708;37.644;2022-12-18T16:23:04;8.98;79.12
75786;DHT22;64402;44.708;37.644;2022-12-18T16:25:36;8.97;80.40
75786;DHT22;64402;44.708;37.644;2022-12-18T16:28:07;8.91;79.08
75786;DHT22;64402;44.708;37.644;2022-12-18T16:30:39;8.90;79.67
75786;DHT22;64402;44.708;37.644;2022-12-18T16:33:11;8.90;80.14
75786;DHT22;64402;44.708;37.644;2022-12-18T16:35:43;8.81;79.53
75786;DHT22;64402;44.708;37.644;2022-12-18T16:38:14;8.61;79.91
75786;DHT22;64402;44.708;37.644;2022-12-18T16:40:47;8.51;80.38
75786;DHT22;64402;44.708;37.644;2022-12-18T16:43:37;8.41;80.29
75786;DHT22;64402;44.708;37.644;2022-12-18T16:46:08;8.35;81.26
75786;DHT22;64402;44.708;37.644;2022-12-18T16:48:40;8.21;80.75
75786;DHT22;64402;44.708;37.644;2022-12-18T16:51:11;8.21;81.04
75786;DHT22;64402;44.708;37.644;2022-12-18T16:53:43;8.27;80.61
75786;DHT22;64402;44.708;37.644;2022-12-18T16:56:14;8.24;80.36
75786;DHT22;64402;44.708;37.644;2022-12-18T16:58:51;8.06;80.85
75786;DHT22;64402;44.708;37.644;2022-12-18T17:01:25;8.13;80.54
75786;DHT22;64402;44.708;37.644;2022-12-18T17:04:03;8.22;80.63
75786;DHT22;64402;44.708;37.644;2022-12-18T17:06:39;8.30;79.98
75786;DHT22;64402;44.708;37.644;2022-12-18T17:09:13;8.35;79.28
75786;DHT22;64402;44.708;37.644;2022-12-18T17:11:45;8.38;78.42
75786;DHT22;64402;44.708;37.644;2022-12-18T17:14:19;8.33;79.01
75786;DHT22;64402;44.708;37.644;2022-12-18T17:16:52;8.20;79.62
75786;DHT22;64402;44.708;37.644;2022-12-18T17:19:24;8.07;79.43
75786;DHT22;64402;44.708;37.644;2022-12-18T17:21:56;7.94;80.19
75786;DHT22;64402;44.708;37.644;2022-12-18T17:24:27;7.89;80.51
75786;DHT22;64402;44.708;37.644;2022-12-18T17:26:59;8.00;80.14
75786;DHT22;64402;44.708;37.644;2022-12-18T17:29:30;8.03;80.61
75786;DHT22;64402;44.708;37.644;2022-12-18T17:32:02;7.92;80.46
75786;DHT22;64402;44.708;37.644;2022-12-18T17:34:34;7.77;81.27
75786;DHT22;64402;44.708;37.644;2022-12-18T17:37:07;7.82;81.34
75786;DHT22;64402;44.708;37.644;2022-12-18T17:39:38;7.78;80.73
75786;DHT22;64402;44.708;37.644;2022-12-18T17:42:10;7.76;80.46
75786;DHT22;64402;44.708;37.644;2022-12-18T17:44:42;7.65;81.27
75786;DHT22;64402;44.708;37.644;2022-12-18T17:47:14;7.60;80.34
75786;DHT22;64402;44.708;37.644;2022-12-18T17:49:46;7.48;81.08
75786;DHT22;64402;44.708;37.644;2022-12-18T17:52:17;7.47;81.32
75786;DHT22;64402;44.708;37.644;2022-12-18T17:54:49;7.55;80.88
75786;DHT22;64402;44.708;37.644;2022-12-18T17:57:20;7.61;81.06